This is the latest recevied weather packets stored in our database for station/object IT9GFD-13. If no packets are shown the sender has not sent any weather packets the latest 10 day(s).
| Time | Temp. | Humidity | Pressure | Rain* | Wind** | Luminosity | Snow |
|---|---|---|---|---|---|---|---|
| 1777888816 | 19.44° C | 66% | 1022 hPa | 0 mm | - | - | - |
| 1777887616 | 18.89° C | 68% | 1022.1 hPa | 0 mm | - | - | - |
| 1777887016 | 18.89° C | 69% | 1022 hPa | 0 mm | - | - | - |
| 1777886416 | 18.89° C | 70% | 1021.9 hPa | 0 mm | - | - | - |
| 1777884616 | 18.89° C | 70% | 1022 hPa | 0 mm | - | - | - |
| 1777883416 | 18.89° C | 69% | 1021.9 hPa | 0 mm | - | - | - |
| 1777882236 | 19.44° C | 65% | 1022 hPa | 0 mm | - | - | - |
| 1777879836 | 20° C | 50% | 1022.3 hPa | 0 mm | - | - | - |
| 1777879216 | 20.56° C | 48% | 1022.3 hPa | 0 mm | - | - | - |
| 1777878616 | 20.56° C | 48% | 1022.2 hPa | 0 mm | - | - | - |
| 1777876816 | 18.89° C | 51% | 1022.2 hPa | 0 mm | - | - | - |
| 1777875615 | 18.33° C | 54% | 1022 hPa | 0 mm | - | - | - |
| 1777873817 | 17.22° C | 62% | 1022 hPa | 0 mm | - | - | - |
| 1777870238 | 15.56° C | 68% | 1021.5 hPa | 0 mm | - | - | - |
| 1777865417 | 14.44° C | 74% | 1021.3 hPa | 0 mm | - | - | - |
| 1777861817 | 14.44° C | 70% | 1021.4 hPa | 0 mm | - | - | - |
| 1777857017 | 14.44° C | 71% | 1021.4 hPa | 0 mm | - | - | - |
| 1777856417 | 14.44° C | 71% | 1021.6 hPa | 0 mm | - | - | - |
| 1777851017 | 15° C | 79% | 1022 hPa | 0 mm | - | - | - |
| 1777846217 | 15.56° C | 82% | 1022.3 hPa | 0 mm | - | - | - |
| 1777842017 | 16.11° C | 80% | 1022.6 hPa | 0 mm | - | - | - |
| 1777839017 | 16.11° C | 79% | 1022.5 hPa | 0 mm | - | - | - |
| 1777836637 | 16.11° C | 78% | 1022.5 hPa | 0 mm | - | - | - |
| 1777831836 | 16.67° C | 73% | 1021.5 hPa | 0 mm | - | - | - |
| 1777830616 | 17.22° C | 72% | 1021.3 hPa | 0 mm | - | - | - |
* Rain latest hour (hover to see other rain measurements)
** Current wind speed in m/s (hover to see current wind gust speed)